sensor_id;sensor_type;location;lat;lon;timestamp;P1;durP1;ratioP1;P2;durP2;ratioP2
35959;SDS011;22043;50.970;7.192;2024-02-04T00:02:22;9.75;;;6.25;;
35959;SDS011;22043;50.970;7.192;2024-02-04T00:04:50;9.98;;;6.03;;
35959;SDS011;22043;50.970;7.192;2024-02-04T00:07:16;10.90;;;6.03;;
35959;SDS011;22043;50.970;7.192;2024-02-04T00:09:41;8.98;;;5.68;;
35959;SDS011;22043;50.970;7.192;2024-02-04T00:12:09;7.30;;;4.55;;
35959;SDS011;22043;50.970;7.192;2024-02-04T00:14:34;9.57;;;5.63;;
35959;SDS011;22043;50.970;7.192;2024-02-04T00:17:00;8.90;;;4.40;;
35959;SDS011;22043;50.970;7.192;2024-02-04T00:19:25;7.95;;;4.50;;
35959;SDS011;22043;50.970;7.192;2024-02-04T00:21:51;5.40;;;3.03;;
35959;SDS011;22043;50.970;7.192;2024-02-04T00:24:17;7.80;;;4.20;;
35959;SDS011;22043;50.970;7.192;2024-02-04T00:26:44;6.47;;;3.70;;
35959;SDS011;22043;50.970;7.192;2024-02-04T00:29:10;5.43;;;3.38;;
35959;SDS011;22043;50.970;7.192;2024-02-04T00:31:36;5.95;;;2.70;;
35959;SDS011;22043;50.970;7.192;2024-02-04T00:34:01;4.60;;;2.25;;
35959;SDS011;22043;50.970;7.192;2024-02-04T00:36:28;3.38;;;2.03;;
35959;SDS011;22043;50.970;7.192;2024-02-04T00:38:53;3.50;;;1.92;;
35959;SDS011;22043;50.970;7.192;2024-02-04T00:41:19;2.95;;;1.73;;
35959;SDS011;22043;50.970;7.192;2024-02-04T00:43:44;4.28;;;1.75;;
35959;SDS011;22043;50.970;7.192;2024-02-04T00:46:12;3.95;;;1.98;;
35959;SDS011;22043;50.970;7.192;2024-02-04T00:48:38;2.45;;;1.42;;
35959;SDS011;22043;50.970;7.192;2024-02-04T00:51:05;3.78;;;1.75;;
35959;SDS011;22043;50.970;7.192;2024-02-04T00:53:31;4.35;;;2.22;;
35959;SDS011;22043;50.970;7.192;2024-02-04T00:56:02;3.70;;;2.00;;
35959;SDS011;22043;50.970;7.192;2024-02-04T00:58:29;3.88;;;2.17;;
35959;SDS011;22043;50.970;7.192;2024-02-04T01:00:54;4.93;;;2.58;;
35959;SDS011;22043;50.970;7.192;2024-02-04T01:03:20;4.53;;;2.60;;
35959;SDS011;22043;50.970;7.192;2024-02-04T01:05:45;4.63;;;2.67;;
35959;SDS011;22043;50.970;7.192;2024-02-04T01:08:10;4.85;;;2.15;;
35959;SDS011;22043;50.970;7.192;2024-02-04T01:10:36;3.67;;;2.03;;
35959;SDS011;22043;50.970;7.192;2024-02-04T01:13:01;4.70;;;2.67;;
35959;SDS011;22043;50.970;7.192;2024-02-04T01:15:28;4.28;;;2.10;;
35959;SDS011;22043;50.970;7.192;2024-02-04T01:17:53;3.78;;;2.33;;
35959;SDS011;22043;50.970;7.192;2024-02-04T01:20:18;3.67;;;1.95;;
35959;SDS011;22043;50.970;7.192;2024-02-04T01:22:44;4.20;;;2.00;;
35959;SDS011;22043;50.970;7.192;2024-02-04T01:25:09;3.75;;;2.20;;
35959;SDS011;22043;50.970;7.192;2024-02-04T01:27:35;3.63;;;2.35;;
35959;SDS011;22043;50.970;7.192;2024-02-04T01:30:00;3.80;;;2.20;;
35959;SDS011;22043;50.970;7.192;2024-02-04T01:32:26;3.75;;;2.03;;
35959;SDS011;22043;50.970;7.192;2024-02-04T01:34:52;3.58;;;2.00;;
35959;SDS011;22043;50.970;7.192;2024-02-04T01:37:17;3.67;;;1.98;;
35959;SDS011;22043;50.970;7.192;2024-02-04T01:39:43;3.22;;;1.58;;
35959;SDS011;22043;50.970;7.192;2024-02-04T01:42:08;4.60;;;1.80;;
35959;SDS011;22043;50.970;7.192;2024-02-04T01:44:35;3.05;;;1.60;;
35959;SDS011;22043;50.970;7.192;2024-02-04T01:47:01;2.72;;;1.52;;
35959;SDS011;22043;50.970;7.192;2024-02-04T01:49:26;3.10;;;1.48;;
35959;SDS011;22043;50.970;7.192;2024-02-04T01:51:52;3.38;;;1.30;;
35959;SDS011;22043;50.970;7.192;2024-02-04T01:54:18;2.90;;;1.58;;
35959;SDS011;22043;50.970;7.192;2024-02-04T01:56:46;2.95;;;1.60;;
35959;SDS011;22043;50.970;7.192;2024-02-04T01:59:12;2.60;;;1.30;;
35959;SDS011;22043;50.970;7.192;2024-02-04T02:01:38;1.50;;;1.00;;
35959;SDS011;22043;50.970;7.192;2024-02-04T02:04:04;2.30;;;1.33;;
35959;SDS011;22043;50.970;7.192;2024-02-04T02:06:30;3.08;;;1.33;;
35959;SDS011;22043;50.970;7.192;2024-02-04T02:08:56;1.75;;;1.00;;
35959;SDS011;22043;50.970;7.192;2024-02-04T02:11:37;2.97;;;1.77;;
35959;SDS011;22043;50.970;7.192;2024-02-04T02:14:05;2.58;;;1.55;;
35959;SDS011;22043;50.970;7.192;2024-02-04T02:16:36;3.00;;;1.48;;
35959;SDS011;22043;50.970;7.192;2024-02-04T02:19:18;2.75;;;1.45;;
35959;SDS011;22043;50.970;7.192;2024-02-04T02:22:00;2.47;;;1.50;;
35959;SDS011;22043;50.970;7.192;2024-02-04T02:24:30;2.97;;;1.63;;
35959;SDS011;22043;50.970;7.192;2024-02-04T02:26:57;2.58;;;1.40;;
35959;SDS011;22043;50.970;7.192;2024-02-04T02:29:24;3.38;;;1.40;;
35959;SDS011;22043;50.970;7.192;2024-02-04T02:31:49;2.53;;;1.42;;
35959;SDS011;22043;50.970;7.192;2024-02-04T02:34:15;4.40;;;1.58;;
35959;SDS011;22043;50.970;7.192;2024-02-04T02:36:44;3.90;;;1.85;;
35959;SDS011;22043;50.970;7.192;2024-02-04T02:39:15;2.85;;;1.60;;
35959;SDS011;22043;50.970;7.192;2024-02-04T02:41:43;3.45;;;1.80;;
35959;SDS011;22043;50.970;7.192;2024-02-04T02:44:09;4.60;;;1.90;;
35959;SDS011;22043;50.970;7.192;2024-02-04T02:46:36;3.33;;;2.00;;
35959;SDS011;22043;50.970;7.192;2024-02-04T02:49:02;4.05;;;1.98;;
35959;SDS011;22043;50.970;7.192;2024-02-04T02:51:28;3.85;;;2.00;;
35959;SDS011;22043;50.970;7.192;2024-02-04T02:53:53;5.45;;;2.13;;
35959;SDS011;22043;50.970;7.192;2024-02-04T02:56:18;3.80;;;2.22;;
35959;SDS011;22043;50.970;7.192;2024-02-04T02:58:44;3.83;;;2.00;;
35959;SDS011;22043;50.970;7.192;2024-02-04T03:01:10;3.65;;;2.00;;
35959;SDS011;22043;50.970;7.192;2024-02-04T03:03:36;3.65;;;1.90;;
35959;SDS011;22043;50.970;7.192;2024-02-04T03:06:02;2.63;;;1.50;;
35959;SDS011;22043;50.970;7.192;2024-02-04T03:08:27;3.22;;;1.75;;
35959;SDS011;22043;50.970;7.192;2024-02-04T03:10:53;3.17;;;1.80;;
35959;SDS011;22043;50.970;7.192;2024-02-04T03:13:18;7.57;;;1.52;;
35959;SDS011;22043;50.970;7.192;2024-02-04T03:15:44;3.13;;;1.73;;
35959;SDS011;22043;50.970;7.192;2024-02-04T03:18:10;3.00;;;1.70;;
35959;SDS011;22043;50.970;7.192;2024-02-04T03:20:36;2.78;;;1.55;;
35959;SDS011;22043;50.970;7.192;2024-02-04T03:23:02;3.53;;;1.75;;
35959;SDS011;22043;50.970;7.192;2024-02-04T03:25:27;4.68;;;1.67;;
35959;SDS011;22043;50.970;7.192;2024-02-04T03:27:54;3.87;;;1.53;;
35959;SDS011;22043;50.970;7.192;2024-02-04T03:30:20;3.20;;;1.95;;
35959;SDS011;22043;50.970;7.192;2024-02-04T03:32:47;3.50;;;1.73;;
35959;SDS011;22043;50.970;7.192;2024-02-04T03:35:12;3.17;;;1.70;;
35959;SDS011;22043;50.970;7.192;2024-02-04T03:37:38;4.22;;;1.70;;
35959;SDS011;22043;50.970;7.192;2024-02-04T03:40:03;4.55;;;1.73;;
35959;SDS011;22043;50.970;7.192;2024-02-04T03:42:29;3.33;;;1.88;;
35959;SDS011;22043;50.970;7.192;2024-02-04T03:44:55;3.55;;;1.80;;
35959;SDS011;22043;50.970;7.192;2024-02-04T03:47:21;3.67;;;2.13;;
35959;SDS011;22043;50.970;7.192;2024-02-04T03:49:46;5.38;;;2.10;;
35959;SDS011;22043;50.970;7.192;2024-02-04T03:52:12;4.85;;;2.60;;
35959;SDS011;22043;50.970;7.192;2024-02-04T03:54:37;5.63;;;2.47;;
35959;SDS011;22043;50.970;7.192;2024-02-04T03:57:03;3.22;;;1.75;;
35959;SDS011;22043;50.970;7.192;2024-02-04T03:59:29;4.43;;;2.30;;
35959;SDS011;22043;50.970;7.192;2024-02-04T04:01:54;4.43;;;2.50;;
35959;SDS011;22043;50.970;7.192;2024-02-04T04:04:20;6.13;;;2.78;;
35959;SDS011;22043;50.970;7.192;2024-02-04T04:06:46;5.38;;;2.33;;
35959;SDS011;22043;50.970;7.192;2024-02-04T04:09:12;4.78;;;2.50;;
35959;SDS011;22043;50.970;7.192;2024-02-04T04:11:37;4.97;;;2.80;;
35959;SDS011;22043;50.970;7.192;2024-02-04T04:14:03;5.10;;;2.53;;
35959;SDS011;22043;50.970;7.192;2024-02-04T04:16:28;5.45;;;2.50;;
35959;SDS011;22043;50.970;7.192;2024-02-04T04:18:54;6.57;;;2.97;;
35959;SDS011;22043;50.970;7.192;2024-02-04T04:21:19;6.22;;;2.90;;
35959;SDS011;22043;50.970;7.192;2024-02-04T04:23:45;6.65;;;3.17;;
35959;SDS011;22043;50.970;7.192;2024-02-04T04:26:10;8.32;;;3.17;;
35959;SDS011;22043;50.970;7.192;2024-02-04T04:28:36;6.38;;;3.20;;
35959;SDS011;22043;50.970;7.192;2024-02-04T04:31:01;6.78;;;3.65;;
35959;SDS011;22043;50.970;7.192;2024-02-04T04:33:27;8.40;;;4.18;;
35959;SDS011;22043;50.970;7.192;2024-02-04T04:35:52;7.82;;;4.30;;
35959;SDS011;22043;50.970;7.192;2024-02-04T04:38:17;7.18;;;3.55;;
35959;SDS011;22043;50.970;7.192;2024-02-04T04:40:43;6.63;;;3.63;;
35959;SDS011;22043;50.970;7.192;2024-02-04T04:43:08;5.22;;;2.90;;
35959;SDS011;22043;50.970;7.192;2024-02-04T04:45:34;6.82;;;3.70;;
35959;SDS011;22043;50.970;7.192;2024-02-04T04:47:59;6.22;;;3.25;;
35959;SDS011;22043;50.970;7.192;2024-02-04T04:50:25;6.40;;;3.35;;
35959;SDS011;22043;50.970;7.192;2024-02-04T04:52:50;5.70;;;3.15;;
35959;SDS011;22043;50.970;7.192;2024-02-04T04:55:15;6.78;;;3.30;;
35959;SDS011;22043;50.970;7.192;2024-02-04T04:57:43;5.18;;;2.67;;
35959;SDS011;22043;50.970;7.192;2024-02-04T05:00:09;5.97;;;3.28;;
35959;SDS011;22043;50.970;7.192;2024-02-04T05:02:36;5.93;;;3.22;;
35959;SDS011;22043;50.970;7.192;2024-02-04T05:05:02;5.35;;;2.90;;
35959;SDS011;22043;50.970;7.192;2024-02-04T05:07:27;7.10;;;3.28;;
35959;SDS011;22043;50.970;7.192;2024-02-04T05:09:52;7.30;;;3.10;;
35959;SDS011;22043;50.970;7.192;2024-02-04T05:12:18;6.88;;;3.60;;
35959;SDS011;22043;50.970;7.192;2024-02-04T05:14:43;7.57;;;3.25;;
35959;SDS011;22043;50.970;7.192;2024-02-04T05:17:09;8.40;;;3.58;;
35959;SDS011;22043;50.970;7.192;2024-02-04T05:19:34;7.28;;;3.40;;
35959;SDS011;22043;50.970;7.192;2024-02-04T05:22:00;7.72;;;3.28;;
35959;SDS011;22043;50.970;7.192;2024-02-04T05:24:26;6.28;;;2.95;;
35959;SDS011;22043;50.970;7.192;2024-02-04T05:26:52;7.68;;;3.67;;
35959;SDS011;22043;50.970;7.192;2024-02-04T05:29:17;6.82;;;3.13;;
35959;SDS011;22043;50.970;7.192;2024-02-04T05:31:43;7.28;;;3.65;;
35959;SDS011;22043;50.970;7.192;2024-02-04T05:34:08;5.80;;;3.10;;
35959;SDS011;22043;50.970;7.192;2024-02-04T05:36:35;7.70;;;3.85;;
35959;SDS011;22043;50.970;7.192;2024-02-04T05:39:16;7.75;;;4.50;;
35959;SDS011;22043;50.970;7.192;2024-02-04T05:41:41;5.95;;;3.15;;
35959;SDS011;22043;50.970;7.192;2024-02-04T05:44:07;7.25;;;3.30;;
35959;SDS011;22043;50.970;7.192;2024-02-04T05:46:35;10.10;;;3.60;;
35959;SDS011;22043;50.970;7.192;2024-02-04T05:49:01;7.38;;;3.25;;
35959;SDS011;22043;50.970;7.192;2024-02-04T05:51:27;6.07;;;3.42;;
35959;SDS011;22043;50.970;7.192;2024-02-04T05:53:52;6.47;;;3.58;;
35959;SDS011;22043;50.970;7.192;2024-02-04T05:56:18;6.50;;;3.38;;
35959;SDS011;22043;50.970;7.192;2024-02-04T05:58:45;6.63;;;3.45;;
35959;SDS011;22043;50.970;7.192;2024-02-04T06:01:11;7.57;;;4.10;;
35959;SDS011;22043;50.970;7.192;2024-02-04T06:03:36;6.60;;;3.63;;
35959;SDS011;22043;50.970;7.192;2024-02-04T06:06:01;7.30;;;3.35;;
35959;SDS011;22043;50.970;7.192;2024-02-04T06:08:27;8.30;;;3.47;;
35959;SDS011;22043;50.970;7.192;2024-02-04T06:10:52;12.40;;;4.38;;
35959;SDS011;22043;50.970;7.192;2024-02-04T06:13:18;6.65;;;3.60;;
35959;SDS011;22043;50.970;7.192;2024-02-04T06:15:43;6.47;;;3.08;;
35959;SDS011;22043;50.970;7.192;2024-02-04T06:18:08;6.88;;;3.35;;
35959;SDS011;22043;50.970;7.192;2024-02-04T06:20:34;5.90;;;3.30;;
35959;SDS011;22043;50.970;7.192;2024-02-04T06:22:59;6.50;;;3.58;;
35959;SDS011;22043;50.970;7.192;2024-02-04T06:25:26;8.18;;;3.42;;
35959;SDS011;22043;50.970;7.192;2024-02-04T06:27:51;8.55;;;3.55;;
35959;SDS011;22043;50.970;7.192;2024-02-04T06:30:17;6.22;;;3.42;;
35959;SDS011;22043;50.970;7.192;2024-02-04T06:32:42;7.10;;;3.33;;
35959;SDS011;22043;50.970;7.192;2024-02-04T06:35:08;5.50;;;3.15;;
35959;SDS011;22043;50.970;7.192;2024-02-04T06:37:33;5.80;;;3.22;;
35959;SDS011;22043;50.970;7.192;2024-02-04T06:39:58;6.65;;;3.45;;
35959;SDS011;22043;50.970;7.192;2024-02-04T06:42:24;8.10;;;3.22;;
35959;SDS011;22043;50.970;7.192;2024-02-04T06:44:49;5.93;;;2.88;;
35959;SDS011;22043;50.970;7.192;2024-02-04T06:47:15;7.03;;;3.40;;
35959;SDS011;22043;50.970;7.192;2024-02-04T06:49:43;8.10;;;3.58;;
35959;SDS011;22043;50.970;7.192;2024-02-04T06:52:09;7.80;;;3.33;;
35959;SDS011;22043;50.970;7.192;2024-02-04T06:54:34;5.05;;;2.90;;
35959;SDS011;22043;50.970;7.192;2024-02-04T06:57:00;5.60;;;2.88;;
35959;SDS011;22043;50.970;7.192;2024-02-04T06:59:25;6.75;;;3.08;;
35959;SDS011;22043;50.970;7.192;2024-02-04T07:01:51;6.13;;;2.72;;
35959;SDS011;22043;50.970;7.192;2024-02-04T07:04:18;5.95;;;2.80;;
35959;SDS011;22043;50.970;7.192;2024-02-04T07:06:43;6.07;;;2.53;;
35959;SDS011;22043;50.970;7.192;2024-02-04T07:09:09;4.85;;;2.58;;
35959;SDS011;22043;50.970;7.192;2024-02-04T07:11:34;4.82;;;2.40;;
35959;SDS011;22043;50.970;7.192;2024-02-04T07:13:59;5.22;;;2.17;;
35959;SDS011;22043;50.970;7.192;2024-02-04T07:16:25;5.22;;;2.17;;
35959;SDS011;22043;50.970;7.192;2024-02-04T07:18:51;4.32;;;1.85;;
35959;SDS011;22043;50.970;7.192;2024-02-04T07:21:16;4.45;;;1.70;;
35959;SDS011;22043;50.970;7.192;2024-02-04T07:23:42;3.42;;;1.77;;
35959;SDS011;22043;50.970;7.192;2024-02-04T07:26:07;3.63;;;2.10;;
35959;SDS011;22043;50.970;7.192;2024-02-04T07:28:33;5.63;;;2.25;;
35959;SDS011;22043;50.970;7.192;2024-02-04T07:30:59;6.90;;;2.97;;
35959;SDS011;22043;50.970;7.192;2024-02-04T07:33:24;6.18;;;2.60;;
35959;SDS011;22043;50.970;7.192;2024-02-04T07:35:50;5.72;;;2.80;;
35959;SDS011;22043;50.970;7.192;2024-02-04T07:38:15;6.78;;;3.10;;
35959;SDS011;22043;50.970;7.192;2024-02-04T07:40:41;5.40;;;2.70;;
35959;SDS011;22043;50.970;7.192;2024-02-04T07:43:07;5.93;;;2.38;;
35959;SDS011;22043;50.970;7.192;2024-02-04T07:45:34;4.03;;;2.20;;
35959;SDS011;22043;50.970;7.192;2024-02-04T07:47:59;4.15;;;2.20;;
35959;SDS011;22043;50.970;7.192;2024-02-04T07:50:25;4.28;;;2.00;;
35959;SDS011;22043;50.970;7.192;2024-02-04T07:52:51;4.53;;;2.25;;
35959;SDS011;22043;50.970;7.192;2024-02-04T07:55:16;4.57;;;2.00;;
35959;SDS011;22043;50.970;7.192;2024-02-04T07:57:42;4.07;;;1.80;;
35959;SDS011;22043;50.970;7.192;2024-02-04T08:00:07;4.03;;;2.08;;
35959;SDS011;22043;50.970;7.192;2024-02-04T08:02:39;3.47;;;1.92;;
35959;SDS011;22043;50.970;7.192;2024-02-04T08:05:04;4.10;;;2.13;;
35959;SDS011;22043;50.970;7.192;2024-02-04T08:07:30;4.88;;;2.25;;
35959;SDS011;22043;50.970;7.192;2024-02-04T08:09:56;3.55;;;1.90;;
35959;SDS011;22043;50.970;7.192;2024-02-04T08:12:21;3.03;;;1.50;;
35959;SDS011;22043;50.970;7.192;2024-02-04T08:14:47;3.47;;;1.70;;
35959;SDS011;22043;50.970;7.192;2024-02-04T08:17:12;3.97;;;1.98;;
35959;SDS011;22043;50.970;7.192;2024-02-04T08:19:37;3.20;;;1.83;;
35959;SDS011;22043;50.970;7.192;2024-02-04T08:22:03;3.78;;;1.48;;
35959;SDS011;22043;50.970;7.192;2024-02-04T08:24:29;2.88;;;1.52;;
35959;SDS011;22043;50.970;7.192;2024-02-04T08:26:57;3.15;;;1.60;;
35959;SDS011;22043;50.970;7.192;2024-02-04T08:29:23;4.30;;;1.50;;
35959;SDS011;22043;50.970;7.192;2024-02-04T08:31:49;2.80;;;1.40;;
35959;SDS011;22043;50.970;7.192;2024-02-04T08:34:14;2.47;;;1.40;;
35959;SDS011;22043;50.970;7.192;2024-02-04T08:36:39;3.00;;;1.40;;
35959;SDS011;22043;50.970;7.192;2024-02-04T08:39:05;2.78;;;1.10;;
35959;SDS011;22043;50.970;7.192;2024-02-04T08:41:30;3.03;;;1.50;;
35959;SDS011;22043;50.970;7.192;2024-02-04T08:43:56;3.03;;;1.20;;
35959;SDS011;22043;50.970;7.192;2024-02-04T08:46:21;2.72;;;1.02;;
35959;SDS011;22043;50.970;7.192;2024-02-04T08:48:46;4.38;;;1.73;;
35959;SDS011;22043;50.970;7.192;2024-02-04T08:51:12;2.80;;;1.20;;
35959;SDS011;22043;50.970;7.192;2024-02-04T08:53:41;2.25;;;1.05;;
35959;SDS011;22043;50.970;7.192;2024-02-04T08:56:07;2.55;;;1.23;;
35959;SDS011;22043;50.970;7.192;2024-02-04T08:58:33;2.75;;;1.25;;
35959;SDS011;22043;50.970;7.192;2024-02-04T09:00:58;2.40;;;1.00;;
35959;SDS011;22043;50.970;7.192;2024-02-04T09:03:23;1.85;;;1.00;;
35959;SDS011;22043;50.970;7.192;2024-02-04T09:05:49;3.00;;;1.42;;
35959;SDS011;22043;50.970;7.192;2024-02-04T09:08:14;2.30;;;1.20;;
35959;SDS011;22043;50.970;7.192;2024-02-04T09:10:40;2.75;;;1.10;;
35959;SDS011;22043;50.970;7.192;2024-02-04T09:13:05;2.92;;;1.15;;
35959;SDS011;22043;50.970;7.192;2024-02-04T09:15:31;2.63;;;1.00;;
35959;SDS011;22043;50.970;7.192;2024-02-04T09:17:56;3.08;;;0.98;;
35959;SDS011;22043;50.970;7.192;2024-02-04T09:20:21;2.95;;;0.95;;
35959;SDS011;22043;50.970;7.192;2024-02-04T09:22:47;1.90;;;0.93;;
35959;SDS011;22043;50.970;7.192;2024-02-04T09:25:12;2.58;;;1.17;;
35959;SDS011;22043;50.970;7.192;2024-02-04T09:27:39;2.00;;;0.90;;
35959;SDS011;22043;50.970;7.192;2024-02-04T09:30:04;1.90;;;1.13;;
35959;SDS011;22043;50.970;7.192;2024-02-04T09:32:31;1.95;;;0.80;;
35959;SDS011;22043;50.970;7.192;2024-02-04T09:34:57;1.58;;;0.65;;
35959;SDS011;22043;50.970;7.192;2024-02-04T09:37:22;1.20;;;0.63;;
35959;SDS011;22043;50.970;7.192;2024-02-04T09:39:48;3.28;;;1.00;;
35959;SDS011;22043;50.970;7.192;2024-02-04T09:42:16;2.28;;;1.02;;
35959;SDS011;22043;50.970;7.192;2024-02-04T09:44:44;1.35;;;0.60;;
35959;SDS011;22043;50.970;7.192;2024-02-04T09:47:11;3.60;;;1.00;;
35959;SDS011;22043;50.970;7.192;2024-02-04T09:49:36;2.55;;;0.73;;
35959;SDS011;22043;50.970;7.192;2024-02-04T09:52:04;1.65;;;0.80;;
35959;SDS011;22043;50.970;7.192;2024-02-04T09:54:42;1.05;;;0.70;;
35959;SDS011;22043;50.970;7.192;2024-02-04T09:57:09;2.45;;;0.73;;
35959;SDS011;22043;50.970;7.192;2024-02-04T09:59:35;0.68;;;0.40;;
35959;SDS011;22043;50.970;7.192;2024-02-04T10:02:01;1.27;;;0.77;;
35959;SDS011;22043;50.970;7.192;2024-02-04T10:04:28;2.33;;;0.70;;
35959;SDS011;22043;50.970;7.192;2024-02-04T10:06:53;1.00;;;0.50;;
35959;SDS011;22043;50.970;7.192;2024-02-04T10:09:19;1.33;;;0.50;;
35959;SDS011;22043;50.970;7.192;2024-02-04T10:11:44;1.70;;;0.70;;
35959;SDS011;22043;50.970;7.192;2024-02-04T10:14:09;2.17;;;0.60;;
35959;SDS011;22043;50.970;7.192;2024-02-04T10:16:35;1.75;;;0.70;;
35959;SDS011;22043;50.970;7.192;2024-02-04T10:19:01;1.52;;;0.70;;
35959;SDS011;22043;50.970;7.192;2024-02-04T10:21:27;1.85;;;0.77;;
35959;SDS011;22043;50.970;7.192;2024-02-04T10:23:53;3.55;;;1.10;;
35959;SDS011;22043;50.970;7.192;2024-02-04T10:26:18;2.47;;;0.88;;
35959;SDS011;22043;50.970;7.192;2024-02-04T10:28:45;1.90;;;1.10;;
35959;SDS011;22043;50.970;7.192;2024-02-04T10:31:12;1.08;;;0.68;;
35959;SDS011;22043;50.970;7.192;2024-02-04T10:33:38;1.70;;;0.70;;
35959;SDS011;22043;50.970;7.192;2024-02-04T10:36:04;1.88;;;0.80;;
35959;SDS011;22043;50.970;7.192;2024-02-04T10:38:32;5.93;;;1.25;;
35959;SDS011;22043;50.970;7.192;2024-02-04T10:41:01;2.75;;;0.85;;
35959;SDS011;22043;50.970;7.192;2024-02-04T10:43:29;2.47;;;1.10;;
35959;SDS011;22043;50.970;7.192;2024-02-04T10:45:57;1.95;;;0.82;;
35959;SDS011;22043;50.970;7.192;2024-02-04T10:48:36;2.08;;;0.75;;
35959;SDS011;22043;50.970;7.192;2024-02-04T10:51:09;2.85;;;0.90;;
35959;SDS011;22043;50.970;7.192;2024-02-04T10:53:41;3.45;;;1.00;;
35959;SDS011;22043;50.970;7.192;2024-02-04T10:56:07;1.77;;;1.02;;
35959;SDS011;22043;50.970;7.192;2024-02-04T10:58:37;2.38;;;0.80;;
35959;SDS011;22043;50.970;7.192;2024-02-04T11:01:03;3.20;;;1.30;;
35959;SDS011;22043;50.970;7.192;2024-02-04T11:03:29;3.40;;;1.50;;
35959;SDS011;22043;50.970;7.192;2024-02-04T11:05:54;2.30;;;1.00;;
35959;SDS011;22043;50.970;7.192;2024-02-04T11:08:20;4.00;;;1.23;;
35959;SDS011;22043;50.970;7.192;2024-02-04T11:10:46;3.00;;;1.48;;
35959;SDS011;22043;50.970;7.192;2024-02-04T11:13:12;2.33;;;1.10;;
35959;SDS011;22043;50.970;7.192;2024-02-04T11:15:37;4.20;;;1.50;;
35959;SDS011;22043;50.970;7.192;2024-02-04T11:21:11;2.03;;;0.98;;
35959;SDS011;22043;50.970;7.192;2024-02-04T11:26:46;1.67;;;0.57;;
35959;SDS011;22043;50.970;7.192;2024-02-04T11:29:12;1.48;;;0.77;;
35959;SDS011;22043;50.970;7.192;2024-02-04T11:31:38;1.88;;;0.95;;
35959;SDS011;22043;50.970;7.192;2024-02-04T11:34:04;1.52;;;0.57;;
35959;SDS011;22043;50.970;7.192;2024-02-04T11:36:30;1.33;;;0.88;;
35959;SDS011;22043;50.970;7.192;2024-02-04T11:38:55;3.10;;;1.30;;
35959;SDS011;22043;50.970;7.192;2024-02-04T11:41:24;2.85;;;0.90;;
35959;SDS011;22043;50.970;7.192;2024-02-04T11:43:57;2.08;;;1.27;;
35959;SDS011;22043;50.970;7.192;2024-02-04T11:46:27;2.42;;;0.45;;
35959;SDS011;22043;50.970;7.192;2024-02-04T11:48:55;3.22;;;0.60;;
35959;SDS011;22043;50.970;7.192;2024-02-04T11:51:23;2.00;;;0.63;;
35959;SDS011;22043;50.970;7.192;2024-02-04T11:53:50;0.88;;;0.47;;
35959;SDS011;22043;50.970;7.192;2024-02-04T11:56:18;0.88;;;0.60;;
35959;SDS011;22043;50.970;7.192;2024-02-04T11:58:44;3.97;;;0.98;;
35959;SDS011;22043;50.970;7.192;2024-02-04T12:01:10;1.95;;;1.05;;
35959;SDS011;22043;50.970;7.192;2024-02-04T12:03:36;1.52;;;0.75;;
35959;SDS011;22043;50.970;7.192;2024-02-04T12:06:04;2.63;;;0.68;;
35959;SDS011;22043;50.970;7.192;2024-02-04T12:08:31;2.45;;;1.08;;
35959;SDS011;22043;50.970;7.192;2024-02-04T12:10:58;3.05;;;1.00;;
35959;SDS011;22043;50.970;7.192;2024-02-04T12:13:24;2.85;;;1.00;;
35959;SDS011;22043;50.970;7.192;2024-02-04T12:15:49;2.00;;;1.00;;
35959;SDS011;22043;50.970;7.192;2024-02-04T12:18:15;2.63;;;0.90;;
35959;SDS011;22043;50.970;7.192;2024-02-04T12:20:43;2.15;;;1.00;;
35959;SDS011;22043;50.970;7.192;2024-02-04T12:23:09;3.80;;;1.10;;
35959;SDS011;22043;50.970;7.192;2024-02-04T12:25:35;2.67;;;0.93;;
35959;SDS011;22043;50.970;7.192;2024-02-04T12:28:01;2.65;;;0.93;;
35959;SDS011;22043;50.970;7.192;2024-02-04T12:30:28;3.25;;;0.90;;
35959;SDS011;22043;50.970;7.192;2024-02-04T12:32:58;2.08;;;1.05;;
35959;SDS011;22043;50.970;7.192;2024-02-04T12:35:25;4.25;;;0.93;;
35959;SDS011;22043;50.970;7.192;2024-02-04T12:37:53;3.85;;;1.15;;
35959;SDS011;22043;50.970;7.192;2024-02-04T12:40:25;3.63;;;1.05;;
35959;SDS011;22043;50.970;7.192;2024-02-04T12:42:55;2.13;;;0.80;;
35959;SDS011;22043;50.970;7.192;2024-02-04T12:45:25;2.95;;;0.73;;
35959;SDS011;22043;50.970;7.192;2024-02-04T12:47:54;2.45;;;1.23;;
35959;SDS011;22043;50.970;7.192;2024-02-04T12:50:21;2.20;;;0.88;;
35959;SDS011;22043;50.970;7.192;2024-02-04T12:52:48;2.75;;;1.00;;
35959;SDS011;22043;50.970;7.192;2024-02-04T12:55:23;2.97;;;1.08;;
35959;SDS011;22043;50.970;7.192;2024-02-04T12:57:49;3.70;;;1.27;;
35959;SDS011;22043;50.970;7.192;2024-02-04T13:00:18;2.47;;;0.85;;
35959;SDS011;22043;50.970;7.192;2024-02-04T13:02:43;2.95;;;1.05;;
35959;SDS011;22043;50.970;7.192;2024-02-04T13:05:09;2.42;;;1.10;;
35959;SDS011;22043;50.970;7.192;2024-02-04T13:07:34;3.13;;;1.52;;
35959;SDS011;22043;50.970;7.192;2024-02-04T13:09:59;2.65;;;1.42;;
35959;SDS011;22043;50.970;7.192;2024-02-04T13:12:25;2.38;;;1.23;;
35959;SDS011;22043;50.970;7.192;2024-02-04T13:14:51;2.13;;;1.13;;
35959;SDS011;22043;50.970;7.192;2024-02-04T13:17:16;6.03;;;1.42;;
35959;SDS011;22043;50.970;7.192;2024-02-04T13:19:42;1.73;;;1.00;;
35959;SDS011;22043;50.970;7.192;2024-02-04T13:22:08;1.90;;;1.17;;
35959;SDS011;22043;50.970;7.192;2024-02-04T13:24:38;3.83;;;1.45;;
35959;SDS011;22043;50.970;7.192;2024-02-04T13:27:04;4.55;;;1.10;;
35959;SDS011;22043;50.970;7.192;2024-02-04T13:29:31;2.13;;;1.25;;
35959;SDS011;22043;50.970;7.192;2024-02-04T13:31:57;3.53;;;1.13;;
35959;SDS011;22043;50.970;7.192;2024-02-04T13:34:25;2.47;;;1.17;;
35959;SDS011;22043;50.970;7.192;2024-02-04T13:36:50;2.15;;;1.27;;
35959;SDS011;22043;50.970;7.192;2024-02-04T13:39:16;2.47;;;1.55;;
35959;SDS011;22043;50.970;7.192;2024-02-04T13:41:43;2.38;;;1.10;;
35959;SDS011;22043;50.970;7.192;2024-02-04T13:44:09;3.03;;;1.30;;
35959;SDS011;22043;50.970;7.192;2024-02-04T13:46:35;2.53;;;1.45;;
35959;SDS011;22043;50.970;7.192;2024-02-04T13:49:00;2.40;;;0.90;;
35959;SDS011;22043;50.970;7.192;2024-02-04T13:51:25;3.28;;;1.20;;
35959;SDS011;22043;50.970;7.192;2024-02-04T13:53:51;1.85;;;0.93;;
35959;SDS011;22043;50.970;7.192;2024-02-04T13:56:16;2.10;;;1.23;;
35959;SDS011;22043;50.970;7.192;2024-02-04T13:58:44;1.43;;;0.80;;
35959;SDS011;22043;50.970;7.192;2024-02-04T14:01:10;2.30;;;1.08;;
35959;SDS011;22043;50.970;7.192;2024-02-04T14:03:35;2.08;;;0.82;;
35959;SDS011;22043;50.970;7.192;2024-02-04T14:06:01;1.25;;;0.68;;
35959;SDS011;22043;50.970;7.192;2024-02-04T14:08:28;3.45;;;0.93;;
35959;SDS011;22043;50.970;7.192;2024-02-04T14:10:54;1.85;;;1.35;;
35959;SDS011;22043;50.970;7.192;2024-02-04T14:13:20;3.08;;;0.80;;
35959;SDS011;22043;50.970;7.192;2024-02-04T14:15:45;1.33;;;0.93;;
35959;SDS011;22043;50.970;7.192;2024-02-04T14:18:10;1.23;;;0.73;;
35959;SDS011;22043;50.970;7.192;2024-02-04T14:20:36;2.45;;;0.82;;
35959;SDS011;22043;50.970;7.192;2024-02-04T14:23:01;4.32;;;1.90;;
35959;SDS011;22043;50.970;7.192;2024-02-04T14:25:27;2.10;;;0.98;;
35959;SDS011;22043;50.970;7.192;2024-02-04T14:27:52;1.38;;;0.70;;
35959;SDS011;22043;50.970;7.192;2024-02-04T14:30:18;2.25;;;0.70;;
35959;SDS011;22043;50.970;7.192;2024-02-04T14:32:43;1.92;;;0.90;;
35959;SDS011;22043;50.970;7.192;2024-02-04T14:35:09;2.03;;;0.70;;
35959;SDS011;22043;50.970;7.192;2024-02-04T14:37:35;1.80;;;1.15;;
35959;SDS011;22043;50.970;7.192;2024-02-04T14:40:02;3.03;;;0.80;;
35959;SDS011;22043;50.970;7.192;2024-02-04T14:42:29;2.43;;;1.23;;
35959;SDS011;22043;50.970;7.192;2024-02-04T14:44:54;1.48;;;0.75;;
35959;SDS011;22043;50.970;7.192;2024-02-04T14:47:20;2.00;;;0.80;;
35959;SDS011;22043;50.970;7.192;2024-02-04T14:49:45;1.52;;;0.98;;